sensor_id;sensor_type;location;lat;lon;timestamp;temperature;humidity
16180;DHT22;8196;49.428;10.906;2022-12-19T00:01:35;-2.70;99.90
16180;DHT22;8196;49.428;10.906;2022-12-19T00:04:06;-2.70;99.90
16180;DHT22;8196;49.428;10.906;2022-12-19T00:06:36;-2.80;99.90
16180;DHT22;8196;49.428;10.906;2022-12-19T00:09:03;-2.80;99.90
16180;DHT22;8196;49.428;10.906;2022-12-19T00:11:31;-3.00;99.90
16180;DHT22;8196;49.428;10.906;2022-12-19T00:13:58;-2.90;99.90
16180;DHT22;8196;49.428;10.906;2022-12-19T00:16:26;-2.50;99.90
16180;DHT22;8196;49.428;10.906;2022-12-19T00:18:55;-3.00;99.90
16180;DHT22;8196;49.428;10.906;2022-12-19T00:21:24;-3.00;99.90
16180;DHT22;8196;49.428;10.906;2022-12-19T00:23:51;-2.90;99.90
16180;DHT22;8196;49.428;10.906;2022-12-19T00:26:26;-2.90;99.90
16180;DHT22;8196;49.428;10.906;2022-12-19T00:28:56;-3.00;99.90
16180;DHT22;8196;49.428;10.906;2022-12-19T00:31:25;-3.10;99.90
16180;DHT22;8196;49.428;10.906;2022-12-19T00:33:52;-2.90;99.90
16180;DHT22;8196;49.428;10.906;2022-12-19T00:36:23;-3.00;99.90
16180;DHT22;8196;49.428;10.906;2022-12-19T00:38:52;-3.00;99.90
16180;DHT22;8196;49.428;10.906;2022-12-19T00:41:21;-3.00;99.90
16180;DHT22;8196;49.428;10.906;2022-12-19T00:43:53;-2.90;99.90
16180;DHT22;8196;49.428;10.906;2022-12-19T00:48:46;-2.90;99.90
16180;DHT22;8196;49.428;10.906;2022-12-19T00:51:15;-2.90;99.90
16180;DHT22;8196;49.428;10.906;2022-12-19T00:53:45;-3.20;99.90
16180;DHT22;8196;49.428;10.906;2022-12-19T00:56:16;-3.20;99.90
16180;DHT22;8196;49.428;10.906;2022-12-19T00:58:43;-3.20;99.90
16180;DHT22;8196;49.428;10.906;2022-12-19T01:01:30;-2.90;99.90
16180;DHT22;8196;49.428;10.906;2022-12-19T01:03:59;-2.80;99.90
16180;DHT22;8196;49.428;10.906;2022-12-19T01:06:46;-2.90;99.90
16180;DHT22;8196;49.428;10.906;2022-12-19T01:09:14;-3.20;99.90
16180;DHT22;8196;49.428;10.906;2022-12-19T01:11:40;-3.30;99.90
16180;DHT22;8196;49.428;10.906;2022-12-19T01:14:27;-3.10;99.90
16180;DHT22;8196;49.428;10.906;2022-12-19T01:16:54;-3.10;99.90
16180;DHT22;8196;49.428;10.906;2022-12-19T01:19:20;-3.10;99.90
16180;DHT22;8196;49.428;10.906;2022-12-19T01:21:47;-2.80;99.90
16180;DHT22;8196;49.428;10.906;2022-12-19T01:26:45;-2.90;99.90
16180;DHT22;8196;49.428;10.906;2022-12-19T01:29:11;-2.70;99.90
16180;DHT22;8196;49.428;10.906;2022-12-19T01:31:38;-2.90;99.90
16180;DHT22;8196;49.428;10.906;2022-12-19T01:34:05;-3.10;99.90
16180;DHT22;8196;49.428;10.906;2022-12-19T01:36:32;-2.90;99.90
16180;DHT22;8196;49.428;10.906;2022-12-19T01:39:04;-2.90;99.90
16180;DHT22;8196;49.428;10.906;2022-12-19T01:41:31;-3.00;99.90
16180;DHT22;8196;49.428;10.906;2022-12-19T01:44:03;-3.00;99.90
16180;DHT22;8196;49.428;10.906;2022-12-19T01:46:41;-2.90;99.90
16180;DHT22;8196;49.428;10.906;2022-12-19T01:49:16;-3.00;99.90
16180;DHT22;8196;49.428;10.906;2022-12-19T01:54:21;-3.00;99.90
16180;DHT22;8196;49.428;10.906;2022-12-19T01:56:52;-2.90;99.90
16180;DHT22;8196;49.428;10.906;2022-12-19T01:59:24;-3.00;99.90
16180;DHT22;8196;49.428;10.906;2022-12-19T02:01:57;-2.90;99.90
16180;DHT22;8196;49.428;10.906;2022-12-19T02:04:26;-2.80;99.90
16180;DHT22;8196;49.428;10.906;2022-12-19T02:06:58;-2.80;99.90
16180;DHT22;8196;49.428;10.906;2022-12-19T02:09:41;-2.60;99.90
16180;DHT22;8196;49.428;10.906;2022-12-19T02:12:08;-3.10;99.90
16180;DHT22;8196;49.428;10.906;2022-12-19T02:14:35;-3.10;99.90
16180;DHT22;8196;49.428;10.906;2022-12-19T02:17:25;-3.00;99.90
16180;DHT22;8196;49.428;10.906;2022-12-19T02:31:29;-2.80;99.90
16180;DHT22;8196;49.428;10.906;2022-12-19T02:34:19;-2.90;99.90
16180;DHT22;8196;49.428;10.906;2022-12-19T02:36:52;-2.80;99.90
16180;DHT22;8196;49.428;10.906;2022-12-19T02:39:27;-2.90;99.90
16180;DHT22;8196;49.428;10.906;2022-12-19T02:42:00;-2.90;99.90
16180;DHT22;8196;49.428;10.906;2022-12-19T02:44:30;-2.80;99.90
16180;DHT22;8196;49.428;10.906;2022-12-19T02:47:01;-2.50;99.90
16180;DHT22;8196;49.428;10.906;2022-12-19T02:49:31;-2.50;99.90
16180;DHT22;8196;49.428;10.906;2022-12-19T02:54:50;-2.60;99.90
16180;DHT22;8196;49.428;10.906;2022-12-19T02:57:23;-1.70;99.90
16180;DHT22;8196;49.428;10.906;2022-12-19T03:00:04;-2.70;99.90
16180;DHT22;8196;49.428;10.906;2022-12-19T03:02:42;-2.80;99.90
16180;DHT22;8196;49.428;10.906;2022-12-19T03:08:07;-2.70;99.90
16180;DHT22;8196;49.428;10.906;2022-12-19T03:13:27;-2.80;99.90
16180;DHT22;8196;49.428;10.906;2022-12-19T03:15:57;-2.60;99.90
16180;DHT22;8196;49.428;10.906;2022-12-19T03:18:24;-2.70;99.90
16180;DHT22;8196;49.428;10.906;2022-12-19T03:23:40;-2.30;99.90
16180;DHT22;8196;49.428;10.906;2022-12-19T03:26:25;-2.60;99.90
16180;DHT22;8196;49.428;10.906;2022-12-19T03:31:28;-2.60;99.90
16180;DHT22;8196;49.428;10.906;2022-12-19T03:33:58;-2.50;99.90
16180;DHT22;8196;49.428;10.906;2022-12-19T03:36:31;-2.30;99.90
16180;DHT22;8196;49.428;10.906;2022-12-19T03:39:00;-2.60;99.90
16180;DHT22;8196;49.428;10.906;2022-12-19T03:41:29;-2.60;99.90
16180;DHT22;8196;49.428;10.906;2022-12-19T03:44:18;-2.50;99.90
16180;DHT22;8196;49.428;10.906;2022-12-19T03:46:55;-2.50;99.90
16180;DHT22;8196;49.428;10.906;2022-12-19T03:49:25;-2.50;99.90
16180;DHT22;8196;49.428;10.906;2022-12-19T03:52:05;-2.50;99.90
16180;DHT22;8196;49.428;10.906;2022-12-19T03:54:39;-2.40;99.90
16180;DHT22;8196;49.428;10.906;2022-12-19T03:57:17;-2.50;99.90
16180;DHT22;8196;49.428;10.906;2022-12-19T04:02:15;-2.10;99.90
16180;DHT22;8196;49.428;10.906;2022-12-19T04:04:46;-2.60;99.90
16180;DHT22;8196;49.428;10.906;2022-12-19T04:07:14;-2.50;99.90
16180;DHT22;8196;49.428;10.906;2022-12-19T04:09:42;-2.50;99.90
16180;DHT22;8196;49.428;10.906;2022-12-19T04:12:16;-2.50;99.90
16180;DHT22;8196;49.428;10.906;2022-12-19T04:14:44;-2.50;99.90
16180;DHT22;8196;49.428;10.906;2022-12-19T04:17:19;-2.50;99.90
16180;DHT22;8196;49.428;10.906;2022-12-19T04:20:03;-2.20;99.90
16180;DHT22;8196;49.428;10.906;2022-12-19T04:22:36;-2.40;99.90
16180;DHT22;8196;49.428;10.906;2022-12-19T04:25:07;-2.40;99.90
16180;DHT22;8196;49.428;10.906;2022-12-19T04:27:36;-2.20;99.90
16180;DHT22;8196;49.428;10.906;2022-12-19T04:30:04;-2.40;99.90
16180;DHT22;8196;49.428;10.906;2022-12-19T04:32:34;-2.40;99.90
16180;DHT22;8196;49.428;10.906;2022-12-19T04:35:02;-2.20;99.90
16180;DHT22;8196;49.428;10.906;2022-12-19T04:37:30;-2.00;99.90
16180;DHT22;8196;49.428;10.906;2022-12-19T04:39:57;-2.30;99.90
16180;DHT22;8196;49.428;10.906;2022-12-19T04:42:24;-1.90;99.90
16180;DHT22;8196;49.428;10.906;2022-12-19T04:44:51;-2.30;99.90
16180;DHT22;8196;49.428;10.906;2022-12-19T04:47:17;-1.90;99.90
16180;DHT22;8196;49.428;10.906;2022-12-19T04:49:44;-2.10;99.90
16180;DHT22;8196;49.428;10.906;2022-12-19T04:52:11;-2.20;99.90
16180;DHT22;8196;49.428;10.906;2022-12-19T04:54:38;-2.20;99.90
16180;DHT22;8196;49.428;10.906;2022-12-19T04:57:04;-2.10;99.90
16180;DHT22;8196;49.428;10.906;2022-12-19T04:59:31;-2.20;99.90
16180;DHT22;8196;49.428;10.906;2022-12-19T05:01:58;-2.00;99.90
16180;DHT22;8196;49.428;10.906;2022-12-19T05:04:25;-2.10;99.90
16180;DHT22;8196;49.428;10.906;2022-12-19T05:06:52;-2.10;99.90
16180;DHT22;8196;49.428;10.906;2022-12-19T05:09:19;-2.00;99.90
16180;DHT22;8196;49.428;10.906;2022-12-19T05:11:46;-1.90;99.90
16180;DHT22;8196;49.428;10.906;2022-12-19T05:14:12;-2.20;99.90
16180;DHT22;8196;49.428;10.906;2022-12-19T05:16:41;-2.10;99.90
16180;DHT22;8196;49.428;10.906;2022-12-19T05:19:07;-2.00;99.90
16180;DHT22;8196;49.428;10.906;2022-12-19T05:21:34;-2.00;99.90
16180;DHT22;8196;49.428;10.906;2022-12-19T05:24:01;-2.00;99.90
16180;DHT22;8196;49.428;10.906;2022-12-19T05:26:28;-2.10;99.90
16180;DHT22;8196;49.428;10.906;2022-12-19T05:28:55;-1.80;99.90
16180;DHT22;8196;49.428;10.906;2022-12-19T05:31:21;-2.10;99.90
16180;DHT22;8196;49.428;10.906;2022-12-19T05:33:48;-2.10;99.90
16180;DHT22;8196;49.428;10.906;2022-12-19T05:36:16;-1.80;99.90
16180;DHT22;8196;49.428;10.906;2022-12-19T05:38:44;-1.90;99.90
16180;DHT22;8196;49.428;10.906;2022-12-19T05:41:13;-2.10;99.90
16180;DHT22;8196;49.428;10.906;2022-12-19T05:43:41;-1.90;99.90
16180;DHT22;8196;49.428;10.906;2022-12-19T05:48:36;-1.90;99.90
16180;DHT22;8196;49.428;10.906;2022-12-19T05:51:03;-1.80;99.90
16180;DHT22;8196;49.428;10.906;2022-12-19T05:53:30;-1.80;99.90
16180;DHT22;8196;49.428;10.906;2022-12-19T05:56:07;-1.60;99.90
16180;DHT22;8196;49.428;10.906;2022-12-19T05:58:34;-1.70;99.90
16180;DHT22;8196;49.428;10.906;2022-12-19T06:01:04;-1.70;99.90
16180;DHT22;8196;49.428;10.906;2022-12-19T06:03:31;-1.70;99.90
16180;DHT22;8196;49.428;10.906;2022-12-19T06:06:02;-1.70;99.90
16180;DHT22;8196;49.428;10.906;2022-12-19T06:08:29;-1.90;99.90
16180;DHT22;8196;49.428;10.906;2022-12-19T06:10:58;-1.80;99.90
16180;DHT22;8196;49.428;10.906;2022-12-19T06:13:26;-1.60;99.90
16180;DHT22;8196;49.428;10.906;2022-12-19T06:15:58;-1.90;99.90
16180;DHT22;8196;49.428;10.906;2022-12-19T06:18:25;-1.90;99.90
16180;DHT22;8196;49.428;10.906;2022-12-19T06:21:14;-1.60;99.90
16180;DHT22;8196;49.428;10.906;2022-12-19T06:23:42;-1.90;99.90
16180;DHT22;8196;49.428;10.906;2022-12-19T06:28:45;-1.80;99.90
16180;DHT22;8196;49.428;10.906;2022-12-19T06:31:12;-1.80;99.90
16180;DHT22;8196;49.428;10.906;2022-12-19T06:33:39;-1.70;99.90
16180;DHT22;8196;49.428;10.906;2022-12-19T06:36:11;-2.00;99.90
16180;DHT22;8196;49.428;10.906;2022-12-19T06:38:39;-1.80;99.90
16180;DHT22;8196;49.428;10.906;2022-12-19T06:41:05;-1.70;99.90
16180;DHT22;8196;49.428;10.906;2022-12-19T06:43:52;-1.90;99.90
16180;DHT22;8196;49.428;10.906;2022-12-19T06:46:19;-1.60;99.90
16180;DHT22;8196;49.428;10.906;2022-12-19T06:48:46;-1.70;99.90
16180;DHT22;8196;49.428;10.906;2022-12-19T06:51:13;-1.40;99.90
16180;DHT22;8196;49.428;10.906;2022-12-19T06:53:40;-1.30;99.90
16180;DHT22;8196;49.428;10.906;2022-12-19T06:56:07;-1.90;99.90
16180;DHT22;8196;49.428;10.906;2022-12-19T06:58:34;-1.60;99.90
16180;DHT22;8196;49.428;10.906;2022-12-19T07:01:00;-1.40;99.90
16180;DHT22;8196;49.428;10.906;2022-12-19T07:03:34;-1.50;99.90
16180;DHT22;8196;49.428;10.906;2022-12-19T07:06:03;-1.50;99.90
16180;DHT22;8196;49.428;10.906;2022-12-19T07:08:30;-1.50;99.90
16180;DHT22;8196;49.428;10.906;2022-12-19T07:10:57;-1.30;99.90
16180;DHT22;8196;49.428;10.906;2022-12-19T07:13:24;-1.60;99.90
16180;DHT22;8196;49.428;10.906;2022-12-19T07:18:25;-1.40;99.90
16180;DHT22;8196;49.428;10.906;2022-12-19T07:20:51;-1.50;99.90
16180;DHT22;8196;49.428;10.906;2022-12-19T07:23:20;-1.40;99.90
16180;DHT22;8196;49.428;10.906;2022-12-19T07:25:47;-1.40;99.90
16180;DHT22;8196;49.428;10.906;2022-12-19T07:28:16;-1.10;99.90
16180;DHT22;8196;49.428;10.906;2022-12-19T07:30:43;-1.50;99.90
16180;DHT22;8196;49.428;10.906;2022-12-19T07:33:10;-1.30;99.90
16180;DHT22;8196;49.428;10.906;2022-12-19T07:35:41;-1.00;99.90
16180;DHT22;8196;49.428;10.906;2022-12-19T07:40:35;-1.20;99.90
16180;DHT22;8196;49.428;10.906;2022-12-19T07:43:03;-1.10;99.90
16180;DHT22;8196;49.428;10.906;2022-12-19T07:45:30;-0.90;99.90
16180;DHT22;8196;49.428;10.906;2022-12-19T07:48:01;-1.20;99.90
16180;DHT22;8196;49.428;10.906;2022-12-19T07:50:28;-1.20;99.90
16180;DHT22;8196;49.428;10.906;2022-12-19T07:52:56;-1.30;99.90
16180;DHT22;8196;49.428;10.906;2022-12-19T07:55:24;-1.20;99.90
16180;DHT22;8196;49.428;10.906;2022-12-19T07:57:51;-1.20;99.90
16180;DHT22;8196;49.428;10.906;2022-12-19T08:00:19;-0.90;99.90
16180;DHT22;8196;49.428;10.906;2022-12-19T08:02:46;-1.20;99.90
16180;DHT22;8196;49.428;10.906;2022-12-19T08:05:13;-1.10;99.90
16180;DHT22;8196;49.428;10.906;2022-12-19T08:07:40;-1.10;99.90
16180;DHT22;8196;49.428;10.906;2022-12-19T08:10:08;-1.00;99.90
16180;DHT22;8196;49.428;10.906;2022-12-19T08:12:37;-1.00;99.90
16180;DHT22;8196;49.428;10.906;2022-12-19T08:15:05;-1.00;99.90
16180;DHT22;8196;49.428;10.906;2022-12-19T08:17:33;-1.00;99.90
16180;DHT22;8196;49.428;10.906;2022-12-19T08:20:00;-0.90;99.90
16180;DHT22;8196;49.428;10.906;2022-12-19T08:22:29;-0.90;99.90
16180;DHT22;8196;49.428;10.906;2022-12-19T08:24:56;-0.60;99.90
16180;DHT22;8196;49.428;10.906;2022-12-19T08:27:23;-0.60;99.90
16180;DHT22;8196;49.428;10.906;2022-12-19T08:29:50;-0.60;99.90
16180;DHT22;8196;49.428;10.906;2022-12-19T08:32:18;-0.50;99.90
16180;DHT22;8196;49.428;10.906;2022-12-19T08:34:47;-0.20;99.90
16180;DHT22;8196;49.428;10.906;2022-12-19T08:37:14;-0.50;99.90
16180;DHT22;8196;49.428;10.906;2022-12-19T08:39:41;-0.40;99.90
16180;DHT22;8196;49.428;10.906;2022-12-19T08:42:07;-0.40;99.90
16180;DHT22;8196;49.428;10.906;2022-12-19T08:44:34;-0.30;99.90
16180;DHT22;8196;49.428;10.906;2022-12-19T08:47:01;0.00;99.90
16180;DHT22;8196;49.428;10.906;2022-12-19T08:49:28;0.10;99.90
16180;DHT22;8196;49.428;10.906;2022-12-19T08:51:55;-0.20;99.90
16180;DHT22;8196;49.428;10.906;2022-12-19T08:54:21;-0.40;99.90
16180;DHT22;8196;49.428;10.906;2022-12-19T08:56:48;0.10;99.90
16180;DHT22;8196;49.428;10.906;2022-12-19T08:59:15;0.00;99.90
16180;DHT22;8196;49.428;10.906;2022-12-19T09:01:50;0.30;99.90
16180;DHT22;8196;49.428;10.906;2022-12-19T09:04:17;0.10;99.90
16180;DHT22;8196;49.428;10.906;2022-12-19T09:07:04;0.20;99.90
16180;DHT22;8196;49.428;10.906;2022-12-19T09:09:31;0.30;99.90
16180;DHT22;8196;49.428;10.906;2022-12-19T09:11:58;0.30;99.90
16180;DHT22;8196;49.428;10.906;2022-12-19T09:14:25;0.40;99.90
16180;DHT22;8196;49.428;10.906;2022-12-19T09:16:51;0.40;99.90
16180;DHT22;8196;49.428;10.906;2022-12-19T09:19:18;0.40;99.90
16180;DHT22;8196;49.428;10.906;2022-12-19T09:21:45;0.50;99.90
16180;DHT22;8196;49.428;10.906;2022-12-19T09:24:11;0.40;99.90
16180;DHT22;8196;49.428;10.906;2022-12-19T09:26:38;0.70;99.90
16180;DHT22;8196;49.428;10.906;2022-12-19T09:29:07;0.70;99.90
16180;DHT22;8196;49.428;10.906;2022-12-19T09:31:49;0.60;99.90
16180;DHT22;8196;49.428;10.906;2022-12-19T09:34:26;0.80;99.90
16180;DHT22;8196;49.428;10.906;2022-12-19T09:37:07;0.80;99.90
16180;DHT22;8196;49.428;10.906;2022-12-19T09:39:34;0.80;99.90
16180;DHT22;8196;49.428;10.906;2022-12-19T09:42:24;0.80;99.90
16180;DHT22;8196;49.428;10.906;2022-12-19T09:47:49;0.90;99.90
16180;DHT22;8196;49.428;10.906;2022-12-19T09:53:00;1.10;99.90
16180;DHT22;8196;49.428;10.906;2022-12-19T09:55:33;1.20;99.90
16180;DHT22;8196;49.428;10.906;2022-12-19T10:00:51;1.20;99.90
16180;DHT22;8196;49.428;10.906;2022-12-19T10:03:44;1.40;99.90
16180;DHT22;8196;49.428;10.906;2022-12-19T10:09:02;1.60;99.90
16180;DHT22;8196;49.428;10.906;2022-12-19T10:15:05;1.60;99.90
16180;DHT22;8196;49.428;10.906;2022-12-19T10:20:20;1.50;99.90
16180;DHT22;8196;49.428;10.906;2022-12-19T10:25:59;1.70;99.90
16180;DHT22;8196;49.428;10.906;2022-12-19T10:31:52;1.80;99.90
16180;DHT22;8196;49.428;10.906;2022-12-19T10:34:23;1.70;99.90
16180;DHT22;8196;49.428;10.906;2022-12-19T10:36:57;1.80;99.90
16180;DHT22;8196;49.428;10.906;2022-12-19T10:42:48;1.90;99.90
16180;DHT22;8196;49.428;10.906;2022-12-19T10:45:19;1.90;99.90
16180;DHT22;8196;49.428;10.906;2022-12-19T10:47:47;1.80;99.90
16180;DHT22;8196;49.428;10.906;2022-12-19T10:50:20;1.90;99.90
16180;DHT22;8196;49.428;10.906;2022-12-19T10:52:54;1.90;99.90
16180;DHT22;8196;49.428;10.906;2022-12-19T10:57:49;2.10;99.90
16180;DHT22;8196;49.428;10.906;2022-12-19T11:00:17;2.00;99.90
16180;DHT22;8196;49.428;10.906;2022-12-19T11:02:48;1.90;99.90
16180;DHT22;8196;49.428;10.906;2022-12-19T11:05:28;1.90;99.90
16180;DHT22;8196;49.428;10.906;2022-12-19T11:08:15;2.00;99.90
16180;DHT22;8196;49.428;10.906;2022-12-19T11:10:47;2.00;99.90
16180;DHT22;8196;49.428;10.906;2022-12-19T11:19:35;2.00;99.90
16180;DHT22;8196;49.428;10.906;2022-12-19T11:22:25;2.10;99.90
16180;DHT22;8196;49.428;10.906;2022-12-19T11:25:18;2.20;99.90
16180;DHT22;8196;49.428;10.906;2022-12-19T11:28:17;2.30;99.90
16180;DHT22;8196;49.428;10.906;2022-12-19T11:31:10;2.80;99.90
16180;DHT22;8196;49.428;10.906;2022-12-19T11:34:05;2.60;99.90
16180;DHT22;8196;49.428;10.906;2022-12-19T11:36:50;2.80;99.90
16180;DHT22;8196;49.428;10.906;2022-12-19T11:39:21;3.10;99.90
16180;DHT22;8196;49.428;10.906;2022-12-19T11:47:40;3.90;99.90
16180;DHT22;8196;49.428;10.906;2022-12-19T11:52:54;3.90;99.90
16180;DHT22;8196;49.428;10.906;2022-12-19T11:56:10;4.00;99.90
16180;DHT22;8196;49.428;10.906;2022-12-19T11:58:47;4.00;99.90
16180;DHT22;8196;49.428;10.906;2022-12-19T12:01:45;4.00;99.90
16180;DHT22;8196;49.428;10.906;2022-12-19T12:07:09;3.90;99.90
16180;DHT22;8196;49.428;10.906;2022-12-19T12:13:23;3.90;99.90
16180;DHT22;8196;49.428;10.906;2022-12-19T12:16:14;4.00;99.90
16180;DHT22;8196;49.428;10.906;2022-12-19T12:19:04;3.50;99.90
16180;DHT22;8196;49.428;10.906;2022-12-19T12:22:04;4.10;99.90
16180;DHT22;8196;49.428;10.906;2022-12-19T12:25:04;3.60;99.90
16180;DHT22;8196;49.428;10.906;2022-12-19T12:46:38;3.60;99.90
16180;DHT22;8196;49.428;10.906;2022-12-19T12:51:46;4.00;99.90
16180;DHT22;8196;49.428;10.906;2022-12-19T12:54:14;4.00;99.90
16180;DHT22;8196;49.428;10.906;2022-12-19T12:56:44;4.00;99.90
16180;DHT22;8196;49.428;10.906;2022-12-19T12:59:28;4.10;99.90
16180;DHT22;8196;49.428;10.906;2022-12-19T13:01:58;4.00;99.90
16180;DHT22;8196;49.428;10.906;2022-12-19T13:04:30;4.00;99.90
16180;DHT22;8196;49.428;10.906;2022-12-19T13:07:20;4.00;99.90
16180;DHT22;8196;49.428;10.906;2022-12-19T13:10:03;4.10;99.90
16180;DHT22;8196;49.428;10.906;2022-12-19T13:12:31;4.10;99.90
16180;DHT22;8196;49.428;10.906;2022-12-19T13:22:44;4.60;99.90
16180;DHT22;8196;49.428;10.906;2022-12-19T13:36:43;5.20;99.90
16180;DHT22;8196;49.428;10.906;2022-12-19T13:39:33;5.10;99.90
16180;DHT22;8196;49.428;10.906;2022-12-19T13:42:22;5.40;99.90
16180;DHT22;8196;49.428;10.906;2022-12-19T13:45:18;5.00;99.90
16180;DHT22;8196;49.428;10.906;2022-12-19T13:47:49;4.90;99.90
16180;DHT22;8196;49.428;10.906;2022-12-19T13:50:25;4.70;99.90
16180;DHT22;8196;49.428;10.906;2022-12-19T13:52:53;4.60;99.90
16180;DHT22;8196;49.428;10.906;2022-12-19T13:55:21;4.60;99.90
16180;DHT22;8196;49.428;10.906;2022-12-19T13:57:51;4.30;99.90
16180;DHT22;8196;49.428;10.906;2022-12-19T14:00:33;4.30;99.90
16180;DHT22;8196;49.428;10.906;2022-12-19T14:03:01;4.10;99.90
16180;DHT22;8196;49.428;10.906;2022-12-19T14:05:32;4.00;99.90
16180;DHT22;8196;49.428;10.906;2022-12-19T14:08:21;3.90;99.90
16180;DHT22;8196;49.428;10.906;2022-12-19T14:10:50;3.60;99.90
16180;DHT22;8196;49.428;10.906;2022-12-19T14:13:45;3.80;99.90
16180;DHT22;8196;49.428;10.906;2022-12-19T14:16:45;3.50;99.90
16180;DHT22;8196;49.428;10.906;2022-12-19T14:19:18;3.40;99.90
16180;DHT22;8196;49.428;10.906;2022-12-19T14:21:45;3.30;99.90
16180;DHT22;8196;49.428;10.906;2022-12-19T14:24:32;3.40;99.90
16180;DHT22;8196;49.428;10.906;2022-12-19T14:27:03;3.30;99.90
16180;DHT22;8196;49.428;10.906;2022-12-19T14:29:52;3.30;99.90
16180;DHT22;8196;49.428;10.906;2022-12-19T14:32:40;3.20;99.90
16180;DHT22;8196;49.428;10.906;2022-12-19T14:35:32;3.10;99.90
16180;DHT22;8196;49.428;10.906;2022-12-19T14:38:23;3.20;99.90
16180;DHT22;8196;49.428;10.906;2022-12-19T14:41:20;3.10;99.90
16180;DHT22;8196;49.428;10.906;2022-12-19T14:44:43;3.10;99.90
16180;DHT22;8196;49.428;10.906;2022-12-19T14:47:34;3.00;99.90
16180;DHT22;8196;49.428;10.906;2022-12-19T14:50:37;3.20;99.90
16180;DHT22;8196;49.428;10.906;2022-12-19T14:53:24;3.20;99.90
16180;DHT22;8196;49.428;10.906;2022-12-19T14:56:12;3.00;99.90
16180;DHT22;8196;49.428;10.906;2022-12-19T14:59:00;2.80;99.90
16180;DHT22;8196;49.428;10.906;2022-12-19T15:01:29;2.90;99.90
16180;DHT22;8196;49.428;10.906;2022-12-19T15:04:02;2.90;99.90
16180;DHT22;8196;49.428;10.906;2022-12-19T15:06:53;2.90;99.90
16180;DHT22;8196;49.428;10.906;2022-12-19T15:12:32;2.80;99.90
16180;DHT22;8196;49.428;10.906;2022-12-19T15:15:44;2.70;99.90
16180;DHT22;8196;49.428;10.906;2022-12-19T15:18:40;2.60;99.90
16180;DHT22;8196;49.428;10.906;2022-12-19T15:21:11;2.60;99.90
16180;DHT22;8196;49.428;10.906;2022-12-19T15:23:38;2.50;99.90
16180;DHT22;8196;49.428;10.906;2022-12-19T15:26:13;2.50;99.90
16180;DHT22;8196;49.428;10.906;2022-12-19T15:33:45;2.10;99.90
16180;DHT22;8196;49.428;10.906;2022-12-19T15:36:32;2.30;99.90
16180;DHT22;8196;49.428;10.906;2022-12-19T15:38:59;2.30;99.90
16180;DHT22;8196;49.428;10.906;2022-12-19T15:41:26;2.20;99.90
16180;DHT22;8196;49.428;10.906;2022-12-19T15:43:53;2.00;99.90
16180;DHT22;8196;49.428;10.906;2022-12-19T15:46:35;1.90;99.90
16180;DHT22;8196;49.428;10.906;2022-12-19T15:49:14;1.90;99.90
16180;DHT22;8196;49.428;10.906;2022-12-19T15:51:41;1.90;99.90
16180;DHT22;8196;49.428;10.906;2022-12-19T15:54:08;1.90;99.90
16180;DHT22;8196;49.428;10.906;2022-12-19T15:56:55;1.90;99.90
16180;DHT22;8196;49.428;10.906;2022-12-19T15:59:26;1.80;99.90
16180;DHT22;8196;49.428;10.906;2022-12-19T16:02:13;1.70;99.90
16180;DHT22;8196;49.428;10.906;2022-12-19T16:04:42;2.00;99.90
16180;DHT22;8196;49.428;10.906;2022-12-19T16:07:14;1.70;99.90
16180;DHT22;8196;49.428;10.906;2022-12-19T16:09:42;1.70;99.90
16180;DHT22;8196;49.428;10.906;2022-12-19T16:12:15;1.80;99.90
16180;DHT22;8196;49.428;10.906;2022-12-19T16:14:44;1.70;99.90
16180;DHT22;8196;49.428;10.906;2022-12-19T16:17:16;1.70;99.90
16180;DHT22;8196;49.428;10.906;2022-12-19T16:19:44;1.70;99.90
16180;DHT22;8196;49.428;10.906;2022-12-19T16:24:43;1.60;99.90
16180;DHT22;8196;49.428;10.906;2022-12-19T16:27:20;1.50;99.90
16180;DHT22;8196;49.428;10.906;2022-12-19T16:29:48;1.40;99.90
16180;DHT22;8196;49.428;10.906;2022-12-19T16:32:16;1.50;99.90
16180;DHT22;8196;49.428;10.906;2022-12-19T16:34:43;1.50;99.90
16180;DHT22;8196;49.428;10.906;2022-12-19T16:37:10;1.40;99.90
16180;DHT22;8196;49.428;10.906;2022-12-19T16:39:37;1.30;99.90
16180;DHT22;8196;49.428;10.906;2022-12-19T16:42:04;1.50;99.90
16180;DHT22;8196;49.428;10.906;2022-12-19T16:44:36;1.40;99.90
16180;DHT22;8196;49.428;10.906;2022-12-19T16:47:08;1.40;99.90
16180;DHT22;8196;49.428;10.906;2022-12-19T16:49:36;1.40;99.90
16180;DHT22;8196;49.428;10.906;2022-12-19T16:52:03;1.40;99.90
16180;DHT22;8196;49.428;10.906;2022-12-19T16:54:30;1.40;99.90
16180;DHT22;8196;49.428;10.906;2022-12-19T16:56:57;1.50;99.90
16180;DHT22;8196;49.428;10.906;2022-12-19T16:59:30;1.50;99.90
16180;DHT22;8196;49.428;10.906;2022-12-19T17:01:58;1.40;99.90
16180;DHT22;8196;49.428;10.906;2022-12-19T17:04:26;1.40;99.90
16180;DHT22;8196;49.428;10.906;2022-12-19T17:06:55;1.40;99.90
16180;DHT22;8196;49.428;10.906;2022-12-19T17:09:23;1.40;99.90
16180;DHT22;8196;49.428;10.906;2022-12-19T17:11:52;1.40;99.90
16180;DHT22;8196;49.428;10.906;2022-12-19T17:14:23;1.70;99.90
16180;DHT22;8196;49.428;10.906;2022-12-19T17:16:51;1.50;99.90
16180;DHT22;8196;49.428;10.906;2022-12-19T17:19:25;1.30;99.90
16180;DHT22;8196;49.428;10.906;2022-12-19T17:21:52;1.30;99.90
16180;DHT22;8196;49.428;10.906;2022-12-19T17:24:19;1.30;99.90
16180;DHT22;8196;49.428;10.906;2022-12-19T17:26:46;1.30;99.90
16180;DHT22;8196;49.428;10.906;2022-12-19T17:29:13;1.30;99.90
16180;DHT22;8196;49.428;10.906;2022-12-19T17:31:40;1.20;99.90
16180;DHT22;8196;49.428;10.906;2022-12-19T17:34:31;1.30;99.90
16180;DHT22;8196;49.428;10.906;2022-12-19T17:37:00;1.20;99.90
16180;DHT22;8196;49.428;10.906;2022-12-19T17:39:29;1.10;99.90
16180;DHT22;8196;49.428;10.906;2022-12-19T17:42:00;1.10;99.90
16180;DHT22;8196;49.428;10.906;2022-12-19T17:44:27;0.90;99.90
16180;DHT22;8196;49.428;10.906;2022-12-19T17:46:54;1.00;99.90
16180;DHT22;8196;49.428;10.906;2022-12-19T17:49:25;1.00;99.90
16180;DHT22;8196;49.428;10.906;2022-12-19T17:51:52;0.90;99.90
16180;DHT22;8196;49.428;10.906;2022-12-19T17:54:20;1.10;99.90
16180;DHT22;8196;49.428;10.906;2022-12-19T17:56:49;0.80;99.90
16180;DHT22;8196;49.428;10.906;2022-12-19T17:59:16;0.80;99.90
16180;DHT22;8196;49.428;10.906;2022-12-19T18:04:15;0.70;99.90
16180;DHT22;8196;49.428;10.906;2022-12-19T18:06:43;0.70;99.90
16180;DHT22;8196;49.428;10.906;2022-12-19T18:09:20;0.70;99.90
16180;DHT22;8196;49.428;10.906;2022-12-19T18:11:48;0.70;99.90
16180;DHT22;8196;49.428;10.906;2022-12-19T18:14:15;0.60;99.90
16180;DHT22;8196;49.428;10.906;2022-12-19T18:16:43;0.60;99.90
16180;DHT22;8196;49.428;10.906;2022-12-19T18:19:19;0.40;99.90
16180;DHT22;8196;49.428;10.906;2022-12-19T18:21:47;0.40;99.90
16180;DHT22;8196;49.428;10.906;2022-12-19T18:24:14;0.50;99.90
16180;DHT22;8196;49.428;10.906;2022-12-19T18:26:43;0.00;99.90
16180;DHT22;8196;49.428;10.906;2022-12-19T18:29:11;0.30;99.90
16180;DHT22;8196;49.428;10.906;2022-12-19T18:31:38;0.20;99.90
16180;DHT22;8196;49.428;10.906;2022-12-19T18:34:18;0.00;99.90
16180;DHT22;8196;49.428;10.906;2022-12-19T18:39:21;0.20;99.90
16180;DHT22;8196;49.428;10.906;2022-12-19T18:41:48;0.20;99.90
16180;DHT22;8196;49.428;10.906;2022-12-19T18:44:16;0.30;99.90